sensor_id;sensor_type;location;lat;lon;timestamp;pressure;altitude;pressure_sealevel;temperature
75822;BMP180;64454;51.984;9.838;2023-09-30T00:02:04;100974.00;;;14.60
75822;BMP180;64454;51.984;9.838;2023-09-30T00:04:30;100981.00;;;14.40
75822;BMP180;64454;51.984;9.838;2023-09-30T00:06:57;100973.00;;;14.60
75822;BMP180;64454;51.984;9.838;2023-09-30T00:09:23;100985.00;;;14.60
75822;BMP180;64454;51.984;9.838;2023-09-30T00:11:50;100995.00;;;14.60
75822;BMP180;64454;51.984;9.838;2023-09-30T00:14:16;100987.00;;;14.60
75822;BMP180;64454;51.984;9.838;2023-09-30T00:16:43;100984.00;;;14.60
75822;BMP180;64454;51.984;9.838;2023-09-30T00:19:09;100995.00;;;14.60
75822;BMP180;64454;51.984;9.838;2023-09-30T00:21:35;100997.00;;;14.50
75822;BMP180;64454;51.984;9.838;2023-09-30T00:24:03;101007.00;;;14.80
75822;BMP180;64454;51.984;9.838;2023-09-30T00:26:29;101014.00;;;14.90
75822;BMP180;64454;51.984;9.838;2023-09-30T00:28:55;101021.00;;;14.70
75822;BMP180;64454;51.984;9.838;2023-09-30T00:31:21;101023.00;;;14.70
75822;BMP180;64454;51.984;9.838;2023-09-30T00:33:48;101023.00;;;14.70
75822;BMP180;64454;51.984;9.838;2023-09-30T00:36:14;101028.00;;;14.80
75822;BMP180;64454;51.984;9.838;2023-09-30T00:38:40;101040.00;;;14.70
75822;BMP180;64454;51.984;9.838;2023-09-30T00:41:07;101022.00;;;14.50
75822;BMP180;64454;51.984;9.838;2023-09-30T00:43:33;101024.00;;;14.70
75822;BMP180;64454;51.984;9.838;2023-09-30T00:46:17;101020.00;;;14.50
75822;BMP180;64454;51.984;9.838;2023-09-30T00:48:44;101028.00;;;14.50
75822;BMP180;64454;51.984;9.838;2023-09-30T00:51:11;101022.00;;;14.30
75822;BMP180;64454;51.984;9.838;2023-09-30T00:53:37;101020.00;;;14.40
75822;BMP180;64454;51.984;9.838;2023-09-30T00:56:04;101028.00;;;14.30
75822;BMP180;64454;51.984;9.838;2023-09-30T00:58:33;101022.00;;;14.40
75822;BMP180;64454;51.984;9.838;2023-09-30T01:01:01;101017.00;;;14.10
75822;BMP180;64454;51.984;9.838;2023-09-30T01:03:27;101020.00;;;14.10
75822;BMP180;64454;51.984;9.838;2023-09-30T01:05:54;101013.00;;;14.30
75822;BMP180;64454;51.984;9.838;2023-09-30T01:08:21;101022.00;;;14.20
75822;BMP180;64454;51.984;9.838;2023-09-30T01:10:47;101024.00;;;14.20
75822;BMP180;64454;51.984;9.838;2023-09-30T01:13:13;101026.00;;;14.10
75822;BMP180;64454;51.984;9.838;2023-09-30T01:15:40;101029.00;;;14.20
75822;BMP180;64454;51.984;9.838;2023-09-30T01:18:07;101027.00;;;14.10
75822;BMP180;64454;51.984;9.838;2023-09-30T01:20:33;101033.00;;;14.30
75822;BMP180;64454;51.984;9.838;2023-09-30T01:23:02;101031.00;;;14.00
75822;BMP180;64454;51.984;9.838;2023-09-30T01:25:28;101037.00;;;14.30
75822;BMP180;64454;51.984;9.838;2023-09-30T01:27:55;101033.00;;;14.20
75822;BMP180;64454;51.984;9.838;2023-09-30T01:30:25;101033.00;;;14.20
75822;BMP180;64454;51.984;9.838;2023-09-30T01:32:51;101040.00;;;14.20
75822;BMP180;64454;51.984;9.838;2023-09-30T01:35:17;101050.00;;;14.20
75822;BMP180;64454;51.984;9.838;2023-09-30T01:37:44;101060.00;;;14.10
75822;BMP180;64454;51.984;9.838;2023-09-30T01:40:11;101064.00;;;14.20
75822;BMP180;64454;51.984;9.838;2023-09-30T01:42:37;101063.00;;;14.00
75822;BMP180;64454;51.984;9.838;2023-09-30T01:45:05;101063.00;;;14.20
75822;BMP180;64454;51.984;9.838;2023-09-30T01:47:31;101070.00;;;14.10
75822;BMP180;64454;51.984;9.838;2023-09-30T01:49:58;101070.00;;;14.20
75822;BMP180;64454;51.984;9.838;2023-09-30T01:52:24;101070.00;;;13.90
75822;BMP180;64454;51.984;9.838;2023-09-30T01:54:53;101066.00;;;13.70
75822;BMP180;64454;51.984;9.838;2023-09-30T01:57:20;101066.00;;;13.50
75822;BMP180;64454;51.984;9.838;2023-09-30T01:59:46;101073.00;;;13.90
75822;BMP180;64454;51.984;9.838;2023-09-30T02:02:13;101075.00;;;13.90
75822;BMP180;64454;51.984;9.838;2023-09-30T02:04:39;101061.00;;;13.90
75822;BMP180;64454;51.984;9.838;2023-09-30T02:07:05;101066.00;;;13.80
75822;BMP180;64454;51.984;9.838;2023-09-30T02:09:32;101064.00;;;14.10
75822;BMP180;64454;51.984;9.838;2023-09-30T02:11:58;101071.00;;;14.10
75822;BMP180;64454;51.984;9.838;2023-09-30T02:14:24;101068.00;;;13.60
75822;BMP180;64454;51.984;9.838;2023-09-30T02:16:51;101075.00;;;13.80
75822;BMP180;64454;51.984;9.838;2023-09-30T02:19:17;101077.00;;;14.10
75822;BMP180;64454;51.984;9.838;2023-09-30T02:21:43;101071.00;;;14.20
75822;BMP180;64454;51.984;9.838;2023-09-30T02:24:10;101072.00;;;14.20
75822;BMP180;64454;51.984;9.838;2023-09-30T02:26:36;101063.00;;;13.70
75822;BMP180;64454;51.984;9.838;2023-09-30T02:29:05;101063.00;;;13.60
75822;BMP180;64454;51.984;9.838;2023-09-30T02:31:34;101060.00;;;13.60
75822;BMP180;64454;51.984;9.838;2023-09-30T02:34:00;101069.00;;;13.60
75822;BMP180;64454;51.984;9.838;2023-09-30T02:36:29;101070.00;;;13.60
75822;BMP180;64454;51.984;9.838;2023-09-30T02:38:55;101078.00;;;13.70
75822;BMP180;64454;51.984;9.838;2023-09-30T02:41:21;101073.00;;;14.00
75822;BMP180;64454;51.984;9.838;2023-09-30T02:43:47;101068.00;;;14.20
75822;BMP180;64454;51.984;9.838;2023-09-30T02:46:13;101075.00;;;14.30
75822;BMP180;64454;51.984;9.838;2023-09-30T02:48:40;101077.00;;;14.30
75822;BMP180;64454;51.984;9.838;2023-09-30T02:51:10;101068.00;;;14.40
75822;BMP180;64454;51.984;9.838;2023-09-30T02:53:36;101062.00;;;14.30
75822;BMP180;64454;51.984;9.838;2023-09-30T02:56:03;101051.00;;;14.40
75822;BMP180;64454;51.984;9.838;2023-09-30T02:58:30;101058.00;;;14.40
75822;BMP180;64454;51.984;9.838;2023-09-30T03:00:56;101063.00;;;14.40
75822;BMP180;64454;51.984;9.838;2023-09-30T03:03:22;101063.00;;;14.00
75822;BMP180;64454;51.984;9.838;2023-09-30T03:05:52;101076.00;;;14.00
75822;BMP180;64454;51.984;9.838;2023-09-30T03:08:18;101073.00;;;13.60
75822;BMP180;64454;51.984;9.838;2023-09-30T03:10:44;101071.00;;;13.70
75822;BMP180;64454;51.984;9.838;2023-09-30T03:13:11;101085.00;;;13.40
75822;BMP180;64454;51.984;9.838;2023-09-30T03:15:37;101085.00;;;13.70
75822;BMP180;64454;51.984;9.838;2023-09-30T03:18:05;101080.00;;;13.80
75822;BMP180;64454;51.984;9.838;2023-09-30T03:20:31;101082.00;;;13.70
75822;BMP180;64454;51.984;9.838;2023-09-30T03:22:58;101093.00;;;13.90
75822;BMP180;64454;51.984;9.838;2023-09-30T03:25:25;101095.00;;;13.90
75822;BMP180;64454;51.984;9.838;2023-09-30T03:27:51;101084.00;;;14.00
75822;BMP180;64454;51.984;9.838;2023-09-30T03:30:17;101092.00;;;14.10
75822;BMP180;64454;51.984;9.838;2023-09-30T03:32:45;101091.00;;;13.80
75822;BMP180;64454;51.984;9.838;2023-09-30T03:35:12;101103.00;;;13.90
75822;BMP180;64454;51.984;9.838;2023-09-30T03:37:43;101101.00;;;14.00
75822;BMP180;64454;51.984;9.838;2023-09-30T03:40:11;101099.00;;;14.10
75822;BMP180;64454;51.984;9.838;2023-09-30T03:42:40;101083.00;;;13.80
75822;BMP180;64454;51.984;9.838;2023-09-30T03:45:09;101088.00;;;13.70
75822;BMP180;64454;51.984;9.838;2023-09-30T03:47:36;101083.00;;;13.50
75822;BMP180;64454;51.984;9.838;2023-09-30T03:50:03;101081.00;;;13.70
75822;BMP180;64454;51.984;9.838;2023-09-30T03:52:30;101080.00;;;13.80
75822;BMP180;64454;51.984;9.838;2023-09-30T03:54:58;101082.00;;;13.90
75822;BMP180;64454;51.984;9.838;2023-09-30T03:57:25;101066.00;;;13.50
75822;BMP180;64454;51.984;9.838;2023-09-30T03:59:52;101072.00;;;13.60
75822;BMP180;64454;51.984;9.838;2023-09-30T04:02:18;101088.00;;;13.40
75822;BMP180;64454;51.984;9.838;2023-09-30T04:04:45;101079.00;;;13.50
75822;BMP180;64454;51.984;9.838;2023-09-30T04:07:12;101080.00;;;13.30
75822;BMP180;64454;51.984;9.838;2023-09-30T04:09:38;101084.00;;;13.30
75822;BMP180;64454;51.984;9.838;2023-09-30T04:12:05;101077.00;;;13.20
75822;BMP180;64454;51.984;9.838;2023-09-30T04:14:32;101081.00;;;13.40
75822;BMP180;64454;51.984;9.838;2023-09-30T04:16:58;101090.00;;;13.50
75822;BMP180;64454;51.984;9.838;2023-09-30T04:19:24;101086.00;;;13.40
75822;BMP180;64454;51.984;9.838;2023-09-30T04:21:50;101083.00;;;13.60
75822;BMP180;64454;51.984;9.838;2023-09-30T04:24:17;101088.00;;;13.60
75822;BMP180;64454;51.984;9.838;2023-09-30T04:26:44;101101.00;;;13.40
75822;BMP180;64454;51.984;9.838;2023-09-30T04:29:11;101087.00;;;13.20
75822;BMP180;64454;51.984;9.838;2023-09-30T04:31:39;101090.00;;;13.30
75822;BMP180;64454;51.984;9.838;2023-09-30T04:34:07;101087.00;;;13.20
75822;BMP180;64454;51.984;9.838;2023-09-30T04:36:33;101093.00;;;13.40
75822;BMP180;64454;51.984;9.838;2023-09-30T04:39:01;101102.00;;;13.10
75822;BMP180;64454;51.984;9.838;2023-09-30T04:41:29;101106.00;;;13.20
75822;BMP180;64454;51.984;9.838;2023-09-30T04:43:55;101109.00;;;13.10
75822;BMP180;64454;51.984;9.838;2023-09-30T04:46:21;101114.00;;;13.00
75822;BMP180;64454;51.984;9.838;2023-09-30T04:48:50;101110.00;;;13.20
75822;BMP180;64454;51.984;9.838;2023-09-30T04:51:17;101106.00;;;13.40
75822;BMP180;64454;51.984;9.838;2023-09-30T04:53:44;101115.00;;;13.30
75822;BMP180;64454;51.984;9.838;2023-09-30T04:56:12;101114.00;;;13.10
75822;BMP180;64454;51.984;9.838;2023-09-30T04:58:38;101109.00;;;13.20
75822;BMP180;64454;51.984;9.838;2023-09-30T05:01:04;101118.00;;;13.40
75822;BMP180;64454;51.984;9.838;2023-09-30T05:03:34;101112.00;;;13.40
75822;BMP180;64454;51.984;9.838;2023-09-30T05:06:20;101123.00;;;13.30
75822;BMP180;64454;51.984;9.838;2023-09-30T05:09:07;101122.00;;;13.50
75822;BMP180;64454;51.984;9.838;2023-09-30T05:11:54;101108.00;;;13.20
75822;BMP180;64454;51.984;9.838;2023-09-30T05:14:41;101105.00;;;13.20
75822;BMP180;64454;51.984;9.838;2023-09-30T05:17:07;101112.00;;;13.10
75822;BMP180;64454;51.984;9.838;2023-09-30T05:19:33;101112.00;;;13.00
75822;BMP180;64454;51.984;9.838;2023-09-30T05:22:01;101115.00;;;12.80
75822;BMP180;64454;51.984;9.838;2023-09-30T05:24:28;101127.00;;;12.70
75822;BMP180;64454;51.984;9.838;2023-09-30T05:26:55;101139.00;;;12.90
75822;BMP180;64454;51.984;9.838;2023-09-30T05:29:21;101141.00;;;12.90
75822;BMP180;64454;51.984;9.838;2023-09-30T05:31:47;101138.00;;;13.00
75822;BMP180;64454;51.984;9.838;2023-09-30T05:34:14;101134.00;;;13.00
75822;BMP180;64454;51.984;9.838;2023-09-30T05:36:40;101139.00;;;13.30
75822;BMP180;64454;51.984;9.838;2023-09-30T05:39:06;101140.00;;;13.40
75822;BMP180;64454;51.984;9.838;2023-09-30T05:41:36;101131.00;;;13.50
75822;BMP180;64454;51.984;9.838;2023-09-30T05:44:03;101128.00;;;13.00
75822;BMP180;64454;51.984;9.838;2023-09-30T05:46:30;101132.00;;;13.30
75822;BMP180;64454;51.984;9.838;2023-09-30T05:48:56;101132.00;;;13.20
75822;BMP180;64454;51.984;9.838;2023-09-30T05:51:23;101132.00;;;13.20
75822;BMP180;64454;51.984;9.838;2023-09-30T05:53:49;101133.00;;;13.10
75822;BMP180;64454;51.984;9.838;2023-09-30T05:56:16;101130.00;;;13.30
75822;BMP180;64454;51.984;9.838;2023-09-30T05:58:43;101133.00;;;13.50
75822;BMP180;64454;51.984;9.838;2023-09-30T06:01:09;101135.00;;;13.50
75822;BMP180;64454;51.984;9.838;2023-09-30T06:03:37;101125.00;;;13.40
75822;BMP180;64454;51.984;9.838;2023-09-30T06:06:11;101137.00;;;13.60
75822;BMP180;64454;51.984;9.838;2023-09-30T06:08:38;101141.00;;;13.80
75822;BMP180;64454;51.984;9.838;2023-09-30T06:11:04;101139.00;;;13.90
75822;BMP180;64454;51.984;9.838;2023-09-30T06:13:32;101150.00;;;14.00
75822;BMP180;64454;51.984;9.838;2023-09-30T06:15:58;101163.00;;;14.00
75822;BMP180;64454;51.984;9.838;2023-09-30T06:18:25;101175.00;;;14.10
75822;BMP180;64454;51.984;9.838;2023-09-30T06:20:51;101182.00;;;14.10
75822;BMP180;64454;51.984;9.838;2023-09-30T06:23:17;101176.00;;;13.60
75822;BMP180;64454;51.984;9.838;2023-09-30T06:25:44;101181.00;;;13.80
75822;BMP180;64454;51.984;9.838;2023-09-30T06:28:10;101188.00;;;13.90
75822;BMP180;64454;51.984;9.838;2023-09-30T06:30:36;101186.00;;;14.00
75822;BMP180;64454;51.984;9.838;2023-09-30T06:33:03;101178.00;;;13.90
75822;BMP180;64454;51.984;9.838;2023-09-30T06:35:30;101187.00;;;13.70
75822;BMP180;64454;51.984;9.838;2023-09-30T06:38:03;101196.00;;;13.90
75822;BMP180;64454;51.984;9.838;2023-09-30T06:40:30;101186.00;;;13.80
75822;BMP180;64454;51.984;9.838;2023-09-30T06:42:57;101191.00;;;13.60
75822;BMP180;64454;51.984;9.838;2023-09-30T06:45:23;101189.00;;;13.70
75822;BMP180;64454;51.984;9.838;2023-09-30T06:47:50;101198.00;;;13.70
75822;BMP180;64454;51.984;9.838;2023-09-30T06:50:16;101192.00;;;13.60
75822;BMP180;64454;51.984;9.838;2023-09-30T06:52:44;101190.00;;;13.70
75822;BMP180;64454;51.984;9.838;2023-09-30T06:55:11;101194.00;;;13.60
75822;BMP180;64454;51.984;9.838;2023-09-30T06:57:40;101195.00;;;13.80
75822;BMP180;64454;51.984;9.838;2023-09-30T07:00:08;101204.00;;;13.90
75822;BMP180;64454;51.984;9.838;2023-09-30T07:02:35;101207.00;;;14.00
75822;BMP180;64454;51.984;9.838;2023-09-30T07:05:05;101210.00;;;14.30
75822;BMP180;64454;51.984;9.838;2023-09-30T07:07:31;101211.00;;;14.30
75822;BMP180;64454;51.984;9.838;2023-09-30T07:09:57;101211.00;;;14.60
75822;BMP180;64454;51.984;9.838;2023-09-30T07:12:23;101206.00;;;14.70
75822;BMP180;64454;51.984;9.838;2023-09-30T07:14:49;101225.00;;;15.00
75822;BMP180;64454;51.984;9.838;2023-09-30T07:17:15;101213.00;;;15.00
75822;BMP180;64454;51.984;9.838;2023-09-30T07:19:41;101216.00;;;14.90
75822;BMP180;64454;51.984;9.838;2023-09-30T07:22:08;101208.00;;;15.20
75822;BMP180;64454;51.984;9.838;2023-09-30T07:24:34;101208.00;;;15.60
75822;BMP180;64454;51.984;9.838;2023-09-30T07:27:01;101216.00;;;15.40
75822;BMP180;64454;51.984;9.838;2023-09-30T07:29:27;101225.00;;;15.20
75822;BMP180;64454;51.984;9.838;2023-09-30T07:31:53;101225.00;;;15.70
75822;BMP180;64454;51.984;9.838;2023-09-30T07:34:19;101227.00;;;15.90
75822;BMP180;64454;51.984;9.838;2023-09-30T07:36:46;101227.00;;;15.70
75822;BMP180;64454;51.984;9.838;2023-09-30T07:39:13;101232.00;;;15.50
75822;BMP180;64454;51.984;9.838;2023-09-30T07:41:39;101233.00;;;15.80
75822;BMP180;64454;51.984;9.838;2023-09-30T07:44:05;101240.00;;;16.20
75822;BMP180;64454;51.984;9.838;2023-09-30T07:46:31;101235.00;;;16.20
75822;BMP180;64454;51.984;9.838;2023-09-30T07:48:57;101239.00;;;15.90
75822;BMP180;64454;51.984;9.838;2023-09-30T07:51:25;101240.00;;;16.60
75822;BMP180;64454;51.984;9.838;2023-09-30T07:53:51;101241.00;;;16.70
75822;BMP180;64454;51.984;9.838;2023-09-30T07:56:18;101253.00;;;16.70
75822;BMP180;64454;51.984;9.838;2023-09-30T07:58:44;101255.00;;;16.90
75822;BMP180;64454;51.984;9.838;2023-09-30T08:01:10;101253.00;;;17.30
75822;BMP180;64454;51.984;9.838;2023-09-30T08:03:37;101247.00;;;17.60
75822;BMP180;64454;51.984;9.838;2023-09-30T08:06:03;101241.00;;;18.40
75822;BMP180;64454;51.984;9.838;2023-09-30T08:08:30;101239.00;;;18.10
75822;BMP180;64454;51.984;9.838;2023-09-30T08:10:56;101241.00;;;19.20
75822;BMP180;64454;51.984;9.838;2023-09-30T08:13:23;101243.00;;;19.60
75822;BMP180;64454;51.984;9.838;2023-09-30T08:15:50;101241.00;;;21.30
75822;BMP180;64454;51.984;9.838;2023-09-30T08:18:16;101254.00;;;22.30
75822;BMP180;64454;51.984;9.838;2023-09-30T08:20:43;101243.00;;;22.60
75822;BMP180;64454;51.984;9.838;2023-09-30T08:23:10;101244.00;;;22.40
75822;BMP180;64454;51.984;9.838;2023-09-30T08:25:37;101252.00;;;21.80
75822;BMP180;64454;51.984;9.838;2023-09-30T08:28:04;101253.00;;;19.50
75822;BMP180;64454;51.984;9.838;2023-09-30T08:30:33;101256.00;;;19.00
75822;BMP180;64454;51.984;9.838;2023-09-30T08:32:59;101263.00;;;19.40
75822;BMP180;64454;51.984;9.838;2023-09-30T08:35:25;101239.00;;;19.70
75822;BMP180;64454;51.984;9.838;2023-09-30T08:37:51;101244.00;;;21.00
75822;BMP180;64454;51.984;9.838;2023-09-30T08:40:20;101240.00;;;21.80
75822;BMP180;64454;51.984;9.838;2023-09-30T08:42:51;101261.00;;;22.10
75822;BMP180;64454;51.984;9.838;2023-09-30T08:45:18;101250.00;;;20.60
75822;BMP180;64454;51.984;9.838;2023-09-30T08:47:45;101272.00;;;21.60
75822;BMP180;64454;51.984;9.838;2023-09-30T08:50:13;101279.00;;;21.30
75822;BMP180;64454;51.984;9.838;2023-09-30T08:52:41;101272.00;;;21.00
75822;BMP180;64454;51.984;9.838;2023-09-30T08:55:08;101259.00;;;20.20
75822;BMP180;64454;51.984;9.838;2023-09-30T08:57:38;101255.00;;;21.70
75822;BMP180;64454;51.984;9.838;2023-09-30T09:00:07;101267.00;;;23.20
75822;BMP180;64454;51.984;9.838;2023-09-30T09:02:37;101281.00;;;24.10
75822;BMP180;64454;51.984;9.838;2023-09-30T09:05:05;101275.00;;;24.20
75822;BMP180;64454;51.984;9.838;2023-09-30T09:07:32;101281.00;;;25.40
75822;BMP180;64454;51.984;9.838;2023-09-30T09:10:07;101289.00;;;25.10
75822;BMP180;64454;51.984;9.838;2023-09-30T09:12:34;101293.00;;;23.30
75822;BMP180;64454;51.984;9.838;2023-09-30T09:15:01;101263.00;;;23.50
75822;BMP180;64454;51.984;9.838;2023-09-30T09:17:41;101281.00;;;24.80
75822;BMP180;64454;51.984;9.838;2023-09-30T09:20:11;101281.00;;;25.50
75822;BMP180;64454;51.984;9.838;2023-09-30T09:22:39;101276.00;;;27.10
75822;BMP180;64454;51.984;9.838;2023-09-30T09:25:06;101287.00;;;28.00
75822;BMP180;64454;51.984;9.838;2023-09-30T09:27:34;101281.00;;;28.60
75822;BMP180;64454;51.984;9.838;2023-09-30T09:30:15;101292.00;;;29.00
75822;BMP180;64454;51.984;9.838;2023-09-30T09:33:01;101275.00;;;28.50
75822;BMP180;64454;51.984;9.838;2023-09-30T09:35:30;101284.00;;;27.90
75822;BMP180;64454;51.984;9.838;2023-09-30T09:37:59;101273.00;;;27.60
75822;BMP180;64454;51.984;9.838;2023-09-30T09:40:29;101262.00;;;26.70
75822;BMP180;64454;51.984;9.838;2023-09-30T09:42:57;101284.00;;;26.70
75822;BMP180;64454;51.984;9.838;2023-09-30T09:45:26;101280.00;;;25.20
75822;BMP180;64454;51.984;9.838;2023-09-30T09:47:54;101285.00;;;23.70
75822;BMP180;64454;51.984;9.838;2023-09-30T09:50:22;101281.00;;;22.90
75822;BMP180;64454;51.984;9.838;2023-09-30T09:52:50;101279.00;;;22.20
75822;BMP180;64454;51.984;9.838;2023-09-30T09:55:18;101280.00;;;21.90
75822;BMP180;64454;51.984;9.838;2023-09-30T09:57:46;101286.00;;;22.70
75822;BMP180;64454;51.984;9.838;2023-09-30T10:00:15;101295.00;;;21.70
75822;BMP180;64454;51.984;9.838;2023-09-30T10:02:44;101294.00;;;21.20
75822;BMP180;64454;51.984;9.838;2023-09-30T10:05:12;101294.00;;;20.80
75822;BMP180;64454;51.984;9.838;2023-09-30T10:07:44;101293.00;;;20.10
75822;BMP180;64454;51.984;9.838;2023-09-30T10:10:18;101292.00;;;21.10
75822;BMP180;64454;51.984;9.838;2023-09-30T10:12:46;101254.00;;;21.40
75822;BMP180;64454;51.984;9.838;2023-09-30T10:15:35;101266.00;;;24.40
75822;BMP180;64454;51.984;9.838;2023-09-30T10:18:04;101244.00;;;25.60
75822;BMP180;64454;51.984;9.838;2023-09-30T10:20:32;101252.00;;;27.10
75822;BMP180;64454;51.984;9.838;2023-09-30T10:23:24;101247.00;;;29.40
75822;BMP180;64454;51.984;9.838;2023-09-30T10:25:53;101250.00;;;31.40
75822;BMP180;64454;51.984;9.838;2023-09-30T10:28:37;101243.00;;;29.80
75822;BMP180;64454;51.984;9.838;2023-09-30T10:31:22;101246.00;;;32.20
75822;BMP180;64454;51.984;9.838;2023-09-30T10:34:22;101242.00;;;32.60
75822;BMP180;64454;51.984;9.838;2023-09-30T10:36:48;101244.00;;;29.30
75822;BMP180;64454;51.984;9.838;2023-09-30T10:39:54;101248.00;;;30.00
75822;BMP180;64454;51.984;9.838;2023-09-30T10:42:49;101275.00;;;28.40
75822;BMP180;64454;51.984;9.838;2023-09-30T10:45:43;101279.00;;;25.60
75822;BMP180;64454;51.984;9.838;2023-09-30T10:48:37;101282.00;;;24.50
75822;BMP180;64454;51.984;9.838;2023-09-30T10:51:15;101286.00;;;22.40
75822;BMP180;64454;51.984;9.838;2023-09-30T10:53:45;101289.00;;;21.50
75822;BMP180;64454;51.984;9.838;2023-09-30T10:56:12;101304.00;;;21.20
75822;BMP180;64454;51.984;9.838;2023-09-30T10:58:44;101279.00;;;21.60
75822;BMP180;64454;51.984;9.838;2023-09-30T11:01:12;101272.00;;;24.30
75822;BMP180;64454;51.984;9.838;2023-09-30T11:03:39;101257.00;;;25.60
75822;BMP180;64454;51.984;9.838;2023-09-30T11:06:06;101259.00;;;26.10
75822;BMP180;64454;51.984;9.838;2023-09-30T11:08:34;101259.00;;;25.50
75822;BMP180;64454;51.984;9.838;2023-09-30T11:11:01;101253.00;;;25.60
75822;BMP180;64454;51.984;9.838;2023-09-30T11:13:33;101263.00;;;26.30
75822;BMP180;64454;51.984;9.838;2023-09-30T11:16:02;101252.00;;;25.40
75822;BMP180;64454;51.984;9.838;2023-09-30T11:18:31;101252.00;;;25.90
75822;BMP180;64454;51.984;9.838;2023-09-30T11:21:06;101254.00;;;27.20
75822;BMP180;64454;51.984;9.838;2023-09-30T11:23:33;101256.00;;;27.40
75822;BMP180;64454;51.984;9.838;2023-09-30T11:26:00;101250.00;;;27.20
75822;BMP180;64454;51.984;9.838;2023-09-30T11:28:36;101249.00;;;27.20
75822;BMP180;64454;51.984;9.838;2023-09-30T11:31:03;101247.00;;;27.70
75822;BMP180;64454;51.984;9.838;2023-09-30T11:33:32;101262.00;;;28.60
75822;BMP180;64454;51.984;9.838;2023-09-30T11:36:02;101263.00;;;26.40
75822;BMP180;64454;51.984;9.838;2023-09-30T11:38:30;101253.00;;;25.20
75822;BMP180;64454;51.984;9.838;2023-09-30T11:41:02;101255.00;;;24.10
75822;BMP180;64454;51.984;9.838;2023-09-30T11:43:32;101246.00;;;23.10
75822;BMP180;64454;51.984;9.838;2023-09-30T11:46:06;101241.00;;;23.20
75822;BMP180;64454;51.984;9.838;2023-09-30T11:48:34;101241.00;;;24.10
75822;BMP180;64454;51.984;9.838;2023-09-30T11:51:01;101251.00;;;23.90
75822;BMP180;64454;51.984;9.838;2023-09-30T11:53:29;101249.00;;;23.70
75822;BMP180;64454;51.984;9.838;2023-09-30T11:55:57;101249.00;;;22.40
75822;BMP180;64454;51.984;9.838;2023-09-30T11:58:25;101244.00;;;22.10
75822;BMP180;64454;51.984;9.838;2023-09-30T12:00:54;101250.00;;;22.00
75822;BMP180;64454;51.984;9.838;2023-09-30T12:03:21;101254.00;;;21.80
75822;BMP180;64454;51.984;9.838;2023-09-30T12:05:47;101254.00;;;21.80
75822;BMP180;64454;51.984;9.838;2023-09-30T12:08:14;101258.00;;;21.90
75822;BMP180;64454;51.984;9.838;2023-09-30T12:10:40;101257.00;;;22.10
75822;BMP180;64454;51.984;9.838;2023-09-30T12:13:06;101253.00;;;22.00
75822;BMP180;64454;51.984;9.838;2023-09-30T12:15:33;101257.00;;;22.00
75822;BMP180;64454;51.984;9.838;2023-09-30T12:17:59;101248.00;;;21.50
75822;BMP180;64454;51.984;9.838;2023-09-30T12:20:26;101242.00;;;23.30
75822;BMP180;64454;51.984;9.838;2023-09-30T12:22:52;101239.00;;;25.10
75822;BMP180;64454;51.984;9.838;2023-09-30T12:25:19;101234.00;;;26.20
75822;BMP180;64454;51.984;9.838;2023-09-30T12:27:47;101241.00;;;25.90
75822;BMP180;64454;51.984;9.838;2023-09-30T12:30:14;101250.00;;;24.70
75822;BMP180;64454;51.984;9.838;2023-09-30T12:32:40;101246.00;;;24.00
75822;BMP180;64454;51.984;9.838;2023-09-30T12:35:07;101253.00;;;22.90
75822;BMP180;64454;51.984;9.838;2023-09-30T12:37:34;101251.00;;;22.30
75822;BMP180;64454;51.984;9.838;2023-09-30T12:40:00;101251.00;;;22.10
75822;BMP180;64454;51.984;9.838;2023-09-30T12:42:29;101251.00;;;21.80
75822;BMP180;64454;51.984;9.838;2023-09-30T12:44:55;101248.00;;;21.00
75822;BMP180;64454;51.984;9.838;2023-09-30T12:47:21;101216.00;;;22.60
75822;BMP180;64454;51.984;9.838;2023-09-30T12:49:47;101209.00;;;25.10
75822;BMP180;64454;51.984;9.838;2023-09-30T12:52:14;101207.00;;;26.80
75822;BMP180;64454;51.984;9.838;2023-09-30T12:54:40;101207.00;;;29.00
75822;BMP180;64454;51.984;9.838;2023-09-30T12:57:07;101201.00;;;29.40
75822;BMP180;64454;51.984;9.838;2023-09-30T12:59:33;101187.00;;;29.30
75822;BMP180;64454;51.984;9.838;2023-09-30T13:01:59;101218.00;;;30.30
75822;BMP180;64454;51.984;9.838;2023-09-30T13:04:26;101191.00;;;29.60
75822;BMP180;64454;51.984;9.838;2023-09-30T13:06:52;101195.00;;;30.40
75822;BMP180;64454;51.984;9.838;2023-09-30T13:09:19;101201.00;;;31.10
75822;BMP180;64454;51.984;9.838;2023-09-30T13:11:46;101192.00;;;31.40
75822;BMP180;64454;51.984;9.838;2023-09-30T13:14:13;101204.00;;;31.00
75822;BMP180;64454;51.984;9.838;2023-09-30T13:16:39;101202.00;;;31.90
75822;BMP180;64454;51.984;9.838;2023-09-30T13:19:05;101193.00;;;30.00
75822;BMP180;64454;51.984;9.838;2023-09-30T13:21:32;101201.00;;;31.10
75822;BMP180;64454;51.984;9.838;2023-09-30T13:23:58;101189.00;;;31.30
75822;BMP180;64454;51.984;9.838;2023-09-30T13:26:24;101191.00;;;31.80
75822;BMP180;64454;51.984;9.838;2023-09-30T13:28:51;101190.00;;;30.70
75822;BMP180;64454;51.984;9.838;2023-09-30T13:31:18;101197.00;;;30.80
75822;BMP180;64454;51.984;9.838;2023-09-30T13:33:44;101183.00;;;29.80
75822;BMP180;64454;51.984;9.838;2023-09-30T13:36:10;101194.00;;;31.00
75822;BMP180;64454;51.984;9.838;2023-09-30T13:38:36;101201.00;;;30.60
75822;BMP180;64454;51.984;9.838;2023-09-30T13:41:03;101189.00;;;30.40
75822;BMP180;64454;51.984;9.838;2023-09-30T13:43:29;101192.00;;;30.30
75822;BMP180;64454;51.984;9.838;2023-09-30T13:45:56;101190.00;;;29.80
75822;BMP180;64454;51.984;9.838;2023-09-30T13:48:22;101191.00;;;29.60
75822;BMP180;64454;51.984;9.838;2023-09-30T13:50:48;101185.00;;;29.60
75822;BMP180;64454;51.984;9.838;2023-09-30T13:53:14;101185.00;;;29.70
75822;BMP180;64454;51.984;9.838;2023-09-30T13:55:41;101187.00;;;28.60
75822;BMP180;64454;51.984;9.838;2023-09-30T13:58:07;101192.00;;;29.50
75822;BMP180;64454;51.984;9.838;2023-09-30T14:00:33;101188.00;;;29.40
75822;BMP180;64454;51.984;9.838;2023-09-30T14:03:00;101189.00;;;29.70